createdAt,value
2023-05-23T00:02:32.480Z,49.46
2023-05-23T00:07:36.757Z,49.55
2023-05-23T00:12:43.040Z,48.58
2023-05-23T00:17:47.640Z,48.44
2023-05-23T00:22:51.567Z,47.90
2023-05-23T00:27:55.599Z,47.68
2023-05-23T00:33:00.871Z,47.16
2023-05-23T00:38:08.667Z,46.06
2023-05-23T00:43:13.013Z,44.97
2023-05-23T00:48:17.120Z,44.42
2023-05-23T00:53:22.808Z,44.00
2023-05-23T00:58:26.954Z,41.15
2023-05-23T01:03:30.861Z,40.87
2023-05-23T01:14:30.717Z,39.13
2023-05-23T01:20:08.952Z,39.31
2023-05-23T01:25:31.473Z,38.62
2023-05-23T01:30:40.670Z,37.06
2023-05-23T01:35:46.183Z,37.47
2023-05-23T01:40:50.112Z,35.83
2023-05-23T01:45:57.323Z,35.51
2023-05-23T01:51:04.047Z,35.18
2023-05-23T01:56:09.184Z,33.53
2023-05-23T02:01:13.328Z,33.50
2023-05-23T02:06:17.384Z,32.99
2023-05-23T02:11:24.030Z,31.42
2023-05-23T02:16:27.884Z,31.67
2023-05-23T02:21:34.846Z,31.16
2023-05-23T02:26:42.560Z,30.62
2023-05-23T02:31:47.565Z,30.00
2023-05-23T02:36:52.348Z,29.52
2023-05-23T02:41:56.582Z,29.43
2023-05-23T02:47:02.724Z,29.10
2023-05-23T02:52:07.635Z,29.70
2023-05-23T02:57:11.647Z,28.87
2023-05-23T03:02:17.782Z,28.74
2023-05-23T03:07:28.058Z,28.40
2023-05-23T03:12:33.124Z,28.08
2023-05-23T03:17:37.312Z,28.49
2023-05-23T03:22:44.238Z,27.87
2023-05-23T03:27:48.160Z,27.43
2023-05-23T03:32:52.293Z,27.13
2023-05-23T03:37:56.637Z,26.58
2023-05-23T03:43:05.889Z,25.19
2023-05-23T03:48:13.082Z,25.68
2023-05-23T03:53:18.992Z,25.94
2023-05-23T03:58:23.034Z,26.56
2023-05-23T04:03:33.568Z,25.01
2023-05-23T04:08:42.689Z,26.75
2023-05-23T04:13:47.870Z,24.03
2023-05-23T04:18:53.179Z,23.57
2023-05-23T04:23:57.606Z,23.93
2023-05-23T04:29:02.568Z,23.33
2023-05-23T04:34:08.868Z,22.35
2023-05-23T04:39:16.806Z,23.25
2023-05-23T04:44:39.159Z,24.53
2023-05-23T04:49:49.788Z,23.48
2023-05-23T04:54:55.042Z,23.48
2023-05-23T04:59:59.119Z,23.23
2023-05-23T05:05:05.014Z,23.45
2023-05-23T05:10:28.364Z,23.79
2023-05-23T05:15:32.966Z,22.88
2023-05-23T05:20:39.522Z,22.97
2023-05-23T05:25:44.098Z,23.05
2023-05-23T05:30:49.194Z,23.38
2023-05-23T05:35:53.629Z,23.87
2023-05-23T05:40:58.422Z,23.81
2023-05-23T05:46:07.044Z,25.11
2023-05-23T05:51:11.651Z,24.27
2023-05-23T05:56:17.777Z,24.56
2023-05-23T06:01:21.735Z,24.18
2023-05-23T06:06:25.939Z,24.47
2023-05-23T06:11:30.518Z,24.37
2023-05-23T06:16:35.297Z,25.80
2023-05-23T06:21:40.028Z,24.84
2023-05-23T06:26:47.005Z,24.88
2023-05-23T06:31:50.979Z,24.17
2023-05-23T06:36:55.076Z,24.69
2023-05-23T06:41:59.179Z,24.64
2023-05-23T06:47:09.870Z,24.71
2023-05-23T06:52:14.787Z,24.27
2023-05-23T06:57:19.438Z,24.91
2023-05-23T07:02:24.405Z,24.96
2023-05-23T07:07:28.671Z,24.89
2023-05-23T07:12:34.753Z,24.69
2023-05-23T07:17:39.368Z,24.78
2023-05-23T07:22:43.722Z,24.48
2023-05-23T07:27:48.138Z,24.42
2023-05-23T07:32:53.407Z,24.53
2023-05-23T07:37:58.673Z,24.93
2023-05-23T07:43:03.038Z,24.57
2023-05-23T07:48:07.668Z,24.77
2023-05-23T07:53:11.772Z,24.61
2023-05-23T07:58:17.368Z,24.66
2023-05-23T08:03:21.387Z,24.89
2023-05-23T08:08:37.294Z,24.70
2023-05-23T08:13:43.322Z,24.67
2023-05-23T08:19:05.737Z,25.33
2023-05-23T08:24:12.169Z,25.84
2023-05-23T08:29:17.896Z,26.04
2023-05-23T08:34:22.134Z,26.40
2023-05-23T08:39:26.382Z,26.36
2023-05-23T08:44:41.693Z,26.76
2023-05-23T08:49:47.136Z,26.92
2023-05-23T08:54:52.190Z,27.04
2023-05-23T08:59:57.583Z,26.71
2023-05-23T09:05:01.691Z,26.68
2023-05-23T09:10:09.617Z,27.19
2023-05-23T09:15:13.854Z,27.37
2023-05-23T09:20:19.352Z,27.21
2023-05-23T09:25:30.035Z,27.37
2023-05-23T09:30:35.783Z,27.17
2023-05-23T09:35:46.991Z,27.42
2023-05-23T09:40:51.175Z,27.29
2023-05-23T09:45:56.878Z,27.48
2023-05-23T09:51:05.907Z,27.64
2023-05-23T09:56:16.395Z,27.39
2023-05-23T10:01:24.435Z,27.13
2023-05-23T10:06:54.163Z,27.23
2023-05-23T10:12:20.996Z,27.51
2023-05-23T10:17:39.314Z,27.77
2023-05-23T10:22:44.024Z,28.00
2023-05-23T10:27:52.254Z,28.32
2023-05-23T10:33:00.117Z,28.35
2023-05-23T10:38:52.202Z,28.28
2023-05-23T10:44:34.639Z,28.29
2023-05-23T10:49:40.038Z,28.70
2023-05-23T10:54:46.682Z,28.74
2023-05-23T10:59:53.494Z,28.52
2023-05-23T11:05:21.367Z,29.47
2023-05-23T11:10:25.830Z,29.04
2023-05-23T11:15:42.313Z,28.88
2023-05-23T11:20:48.317Z,28.97
2023-05-23T11:25:54.440Z,29.44
2023-05-23T11:30:58.641Z,29.50
2023-05-23T11:36:02.951Z,29.70
2023-05-23T11:41:07.262Z,29.83
2023-05-23T11:46:11.391Z,29.79
2023-05-23T11:51:34.021Z,29.80
2023-05-23T11:56:42.323Z,30.00
2023-05-23T12:01:46.638Z,30.10
2023-05-23T12:06:51.439Z,30.34
2023-05-23T12:11:55.828Z,30.95
2023-05-23T12:16:59.958Z,30.80
2023-05-23T12:22:09.002Z,31.22
2023-05-23T12:27:12.958Z,30.17
2023-05-23T12:32:17.669Z,30.47
2023-05-23T12:37:22.718Z,30.47
2023-05-23T12:42:28.698Z,31.04
2023-05-23T12:47:33.931Z,31.14
2023-05-23T12:52:38.318Z,31.65
2023-05-23T12:57:42.298Z,31.90
2023-05-23T13:02:47.013Z,32.11
2023-05-23T13:07:50.929Z,32.38
2023-05-23T13:12:55.045Z,32.29
2023-05-23T13:17:59.351Z,31.93
2023-05-23T13:23:03.365Z,32.47
2023-05-23T13:28:07.800Z,32.57
2023-05-23T13:33:11.758Z,32.78
2023-05-23T13:38:16.422Z,33.56
2023-05-23T13:43:20.375Z,33.81
2023-05-23T13:48:24.531Z,34.39
2023-05-23T13:53:28.685Z,35.34
2023-05-23T13:58:32.908Z,35.36
2023-05-23T14:03:37.552Z,36.06
2023-05-23T14:08:41.547Z,36.48
2023-05-23T14:13:45.714Z,37.03
2023-05-23T14:18:49.716Z,37.21
2023-05-23T14:23:53.918Z,38.15
2023-05-23T14:28:58.080Z,38.52
2023-05-23T14:34:02.118Z,38.46
2023-05-23T14:39:10.485Z,39.30
2023-05-23T14:44:14.915Z,39.50
2023-05-23T14:49:19.148Z,40.22
2023-05-23T14:54:23.147Z,40.37
2023-05-23T14:59:27.526Z,40.90
2023-05-23T15:04:32.207Z,41.01
2023-05-23T15:09:36.362Z,42.16
2023-05-23T15:14:40.596Z,43.20
2023-05-23T15:19:45.516Z,43.57
2023-05-23T15:24:49.663Z,44.04
2023-05-23T15:29:53.682Z,44.41
2023-05-23T15:34:57.742Z,45.06
2023-05-23T15:40:03.036Z,45.86
2023-05-23T15:45:08.023Z,46.32
2023-05-23T15:50:14.366Z,46.37
2023-05-23T15:55:18.623Z,46.87
2023-05-23T16:00:24.140Z,47.19
2023-05-23T16:05:28.342Z,47.94
2023-05-23T16:10:32.184Z,48.40
2023-05-23T16:15:36.523Z,49.09
2023-05-23T16:20:40.636Z,49.35
2023-05-23T16:25:45.014Z,49.82
2023-05-23T16:30:49.607Z,50.38
2023-05-23T16:35:53.540Z,50.96
2023-05-23T16:40:57.703Z,51.52
2023-05-23T16:46:01.924Z,51.89
2023-05-23T16:51:06.279Z,52.15
2023-05-23T16:56:10.212Z,52.57
2023-05-23T17:01:15.643Z,52.77
2023-05-23T17:06:19.710Z,53.89
2023-05-23T17:11:23.609Z,53.53
2023-05-23T17:16:31.134Z,53.86
2023-05-23T17:21:35.584Z,54.60
2023-05-23T17:26:39.652Z,54.67
2023-05-23T17:31:44.007Z,54.98
2023-05-23T17:36:48.194Z,55.64
2023-05-23T17:41:52.170Z,55.51
2023-05-23T17:46:58.385Z,55.63
2023-05-23T17:52:05.628Z,55.85
2023-05-23T17:57:09.655Z,56.59
2023-05-23T18:02:13.758Z,56.72
2023-05-23T18:07:20.662Z,56.75
2023-05-23T18:12:24.600Z,57.22
2023-05-23T18:17:28.996Z,57.62
2023-05-23T18:22:34.084Z,58.10
2023-05-23T18:27:38.329Z,58.27
2023-05-23T18:32:42.381Z,58.01
2023-05-23T18:37:47.209Z,58.68
2023-05-23T18:42:51.330Z,59.09
2023-05-23T18:47:55.654Z,58.64
2023-05-23T18:52:59.738Z,59.86
2023-05-23T18:58:03.796Z,59.10
2023-05-23T19:03:08.132Z,59.91
2023-05-23T19:08:12.076Z,60.09
2023-05-23T19:13:16.155Z,60.34
2023-05-23T19:18:20.847Z,60.83
2023-05-23T19:23:25.478Z,60.76
2023-05-23T19:28:29.583Z,60.80
2023-05-23T19:33:33.500Z,61.46
2023-05-23T19:38:37.638Z,61.99
2023-05-23T19:43:41.489Z,61.68
2023-05-23T19:48:45.751Z,62.20
2023-05-23T19:53:49.924Z,62.55
2023-05-23T19:58:53.969Z,62.27
2023-05-23T20:03:58.292Z,62.60
2023-05-23T20:09:02.593Z,62.82
2023-05-23T20:14:07.740Z,62.94
2023-05-23T20:19:11.840Z,63.24
2023-05-23T20:24:16.209Z,63.58
2023-05-23T20:29:20.456Z,63.44
2023-05-23T20:34:24.536Z,63.65
2023-05-23T20:39:28.683Z,63.40
2023-05-23T20:44:32.592Z,64.00
2023-05-23T20:49:38.307Z,64.32
2023-05-23T20:54:43.378Z,64.34
2023-05-23T20:59:47.830Z,64.09
2023-05-23T21:04:52.145Z,64.42
2023-05-23T21:09:56.454Z,64.33
2023-05-23T21:15:00.775Z,64.57
2023-05-23T21:20:08.592Z,64.59
2023-05-23T21:25:13.082Z,65.16
2023-05-23T21:30:17.245Z,65.11
2023-05-23T21:35:21.307Z,65.20
2023-05-23T21:40:26.552Z,65.04
2023-05-23T21:45:30.567Z,65.10
2023-05-23T21:50:34.654Z,65.44
2023-05-23T21:55:38.877Z,65.67
2023-05-23T22:00:44.272Z,65.96
2023-05-23T22:05:48.349Z,65.75
2023-05-23T22:10:52.515Z,65.81
2023-05-23T22:15:56.624Z,65.99
2023-05-23T22:21:00.568Z,66.30
2023-05-23T22:26:05.422Z,66.05
2023-05-23T22:31:12.091Z,66.02
2023-05-23T22:36:18.367Z,65.97
2023-05-23T22:41:24.071Z,66.22
2023-05-23T22:46:28.480Z,65.85
2023-05-23T22:51:34.916Z,66.51
2023-05-23T22:56:38.920Z,66.22
2023-05-23T23:01:42.885Z,66.32
2023-05-23T23:06:47.113Z,65.92
2023-05-23T23:11:51.191Z,66.16
2023-05-23T23:16:55.332Z,65.80
2023-05-23T23:21:59.738Z,65.01
2023-05-23T23:27:03.898Z,65.26
2023-05-23T23:32:08.144Z,65.53
2023-05-23T23:37:12.102Z,64.83
2023-05-23T23:42:16.677Z,64.29
2023-05-23T23:47:20.614Z,63.73
2023-05-23T23:52:24.678Z,63.61
2023-05-23T23:57:28.734Z,63.01
